Data for 06/23/2016

Time Sea-Level Adjusted Pressure Absolute Pressure Temperature Relative Humidity Dew Point   
(mb) (inHg) (mb) (inHg) (C) (F) (%) (C) (F)
00:05 1018 30.06 847 25.01 19 66.2 27 -0.4 31.2
00:10 1018 30.06 847 25.01 19 66.1 27 -0.4 31.4
00:15 1018 30.06 847 25.01 18.8 65.9 27 -0.3 31.5
00:20 1018 30.06 847 25.01 18.7 65.7 27 -0.4 31.3
00:25 1018 30.06 847 25.01 18.7 65.6 28 -0.3 31.5
00:30 1018 30.06 847 25.01 18.6 65.5 28 -0.2 31.7
00:35 1018 30.06 847 25.01 18.5 65.3 28 -0.1 31.9
00:40 1018 30.06 847 25.01 18.4 65.2 28 -0.1 31.7
00:45 1018 30.06 847 25.01 18.4 65.2 29 0.1 32.3
00:50 1018 30.06 847 25.01 18.3 64.9 29 0.2 32.3
00:55 1018 30.06 847 25.01 18.2 64.8 29 0.3 32.5
01:00 1018 30.06 847 25.01 18.2 64.7 30 0.3 32.5
01:05 1018 30.06 847 25.01 18.2 64.8 29 0.2 32.4
01:10 1018 30.06 847 25.01 18.3 64.9 30 0.4 32.6
01:15 1018 30.06 847 25.01 18.2 64.7 30 0.3 32.5
01:20 1018 30.06 847 25.01 18.2 64.7 30 0.5 32.9
01:25 1018 30.06 847 25.01 18 64.5 30 0.4 32.8
01:30 1018 30.06 847 25.01 17.9 64.3 30 0.4 32.7
01:35 1018 30.06 847 25.01 18 64.3 30 0.3 32.5
01:40 1018 30.06 847 25.01 17.9 64.2 31 0.5 32.8
01:45 1018 30.06 847 25.01 17.7 63.9 31 0.5 32.9
01:50 1018 30.06 847 25.01 17.6 63.8 31 0.3 32.6
01:55 1018 30.06 847 25.01 17.7 63.9 30 0.3 32.5
02:00 1018 30.06 847 25.01 17.7 63.9 31 0.5 32.8
02:05 1018 30.06 847 25.01 17.6 63.8 31 0.4 32.7
02:10 1018 30.06 847 25.01 17.6 63.6 31 0.4 32.7
02:15 1018 30.06 847 25.01 17.6 63.7 31 0.3 32.6
02:20 1018 30.06 848 25.04 17.6 63.7 31 0.4 32.7
02:25 1018 30.06 848 25.04 17.5 63.5 31 0.5 33
02:30 1018 30.06 848 25.04 17.3 63.1 32 0.5 33
02:35 1018 30.06 847 25.01 17.2 62.9 32 0.4 32.6
02:40 1018 30.06 847 25.01 17.2 62.9 32 0.4 32.8
02:45 1018 30.06 847 25.01 17.2 63 32 0.3 32.6
02:50 1018 30.06 847 25.01 17.2 62.9 32 0.6 33.1
02:55 1018 30.06 848 25.04 16.7 62.1 34 0.8 33.5
03:00 1018 30.06 848 25.04 16.5 61.6 34 0.6 33.1
03:05 1018 30.06 848 25.04 16.3 61.4 34 0.7 33.2
03:10 1018 30.06 848 25.04 16.2 61.1 35 0.8 33.5
03:15 1018 30.06 848 25.04 15.9 60.7 36 1.1 33.9
03:20 1019 30.09 848 25.04 15.4 59.7 42 2.6 36.7
03:25 1019 30.09 848 25.04 14.2 57.5 43 1.8 35.3
03:30 1019 30.09 848 25.04 13.7 56.7 43 1.4 34.5
03:35 1019 30.09 848 25.04 13.6 56.5 44 1.5 34.7
03:40 1019 30.09 848 25.04 13.3 56 44 1.5 34.7
03:45 1019 30.09 848 25.04 13 55.5 46 1.8 35.3
03:50 1019 30.09 848 25.04 12.7 54.8 47 1.9 35.4
03:55 1019 30.09 848 25.04 12.5 54.6 45 0.9 33.6
04:00 1019 30.09 848 25.04 12.7 54.8 46 1.4 34.4
04:05 1019 30.09 848 25.04 13 55.4 44 1.1 34
04:10 1019 30.09 848 25.04 13 55.3 45 1.5 34.7
04:15 1019 30.09 848 25.04 12.4 54.3 47 1.6 34.9
04:20 1018 30.06 848 25.04 12.2 53.9 48 1.4 34.6
04:25 1018 30.06 848 25.04 12 53.7 47 1.2 34.2
04:30 1018 30.06 848 25.04 12.2 53.9 47 1.3 34.4
04:35 1018 30.06 848 25.04 12.4 54.3 46 1.2 34.1
04:40 1018 30.06 848 25.04 12.4 54.3 47 1.3 34.4
04:45 1018 30.06 848 25.04 12.3 54.2 46 1.2 34.2
04:50 1018 30.06 848 25.04 12.3 54.2 48 1.6 34.9
04:55 1018 30.06 848 25.04 12.3 54.1 46 0.9 33.7
05:00 1018 30.06 848 25.04 12.7 54.8 46 1.3 34.3
05:05 1018 30.06 848 25.04 12.6 54.6 47 1.5 34.7
05:10 1018 30.06 848 25.04 12.5 54.5 46 1.3 34.3
05:15 1018 30.06 848 25.04 12.7 54.9 46 1.4 34.5
05:20 1018 30.06 848 25.04 12.9 55.2 46 1.5 34.7
05:25 1018 30.06 847 25.01 13 55.3 46 1.7 35.1
05:30 1018 30.06 847 25.01 13.1 55.5 46 1.8 35.3
05:35 1018 30.06 847 25.01 13.3 55.9 46 1.9 35.4
05:40 1018 30.06 847 25.01 13.5 56.3 45 2 35.6
05:45 1018 30.06 847 25.01 14 57.1 43 1.6 34.9
05:50 1018 30.06 847 25.01 14.6 58.3 43 2.2 36
05:55 1018 30.06 847 25.01 14.9 58.7 42 2.2 36
06:00 1018 30.06 848 25.04 14.9 58.8 42 2.2 36
06:05 1018 30.06 848 25.04 15 58.9 42 2.2 36
06:10 1018 30.06 848 25.04 15.2 59.3 41 2.2 35.9
06:15 1018 30.06 848 25.04 15.4 59.7 41 2.3 36.2
06:20 1018 30.06 848 25.04 15.6 60.1 40 2.3 36.1
06:25 1018 30.06 847 25.01 15.6 60.1 41 2.4 36.4
06:30 1018 30.06 848 25.04 16 60.8 41 2.9 37.3
06:35 1018 30.06 847 25.01 16.5 61.6 39 2.6 36.8
06:40 1018 30.06 847 25.01 17.1 62.7 39 3.2 37.7
06:45 1018 30.06 847 25.01 17.3 63.1 42 4.2 39.6
06:50 1018 30.06 847 25.01 17 62.6 40 3.4 38.1
06:55 1018 30.06 847 25.01 17.8 64 38 3.4 38.1
07:00 1018 30.06 847 25.01 18.3 64.9 36 3 37.3
07:05 1018 30.06 847 25.01 18.3 64.9 37 3.5 38.3
07:10 1018 30.06 847 25.01 18.9 66 35 3.4 38.1
07:15 1018 30.06 847 25.01 19.5 67.1 33 2.9 37.3
07:20 1018 30.06 847 25.01 19.2 66.5 35 3.4 38.1
07:25 1018 30.06 847 25.01 19.1 66.3 35 3.3 38
07:30 1018 30.06 847 25.01 19.5 67.1 35 3.6 38.5
07:35 1018 30.06 847 25.01 20.2 68.3 34 3.9 39.1
07:40 1018 30.06 847 25.01 19.6 67.2 35 4.1 39.3
07:45 1018 30.06 847 25.01 19 66.2 36 3.7 38.7
07:50 1018 30.06 847 25.01 19.2 66.6 33 2.6 36.7
07:55 1018 30.06 847 25.01 19.8 67.6 32 2.9 37.2
08:00 1018 30.06 847 25.01 19.9 67.9 32 3 37.3
08:05 1018 30.06 847 25.01 19.8 67.6 33 3.2 37.7
08:10 1018 30.06 847 25.01 19.8 67.7 33 3.3 38
08:15 1018 30.06 847 25.01 19.7 67.5 32 2.9 37.3
08:20 1018 30.06 847 25.01 19.7 67.5 33 3.1 37.5
08:25 1018 30.06 847 25.01 20.4 68.7 32 3.1 37.6
08:30 1018 30.06 847 25.01 21.1 69.9 30 3.1 37.6
08:35 1018 30.06 847 25.01 21.6 70.8 29 3.2 37.8
08:40 1018 30.06 847 25.01 22.1 71.7 29 3.4 38.2
08:45 1018 30.06 847 25.01 22.2 72 30 4 39.3
08:50 1018 30.06 847 25.01 22.7 72.8 29 4.1 39.3
08:55 1018 30.06 847 25.01 22.1 71.8 30 3.9 39
09:00 1018 30.06 847 25.01 22.6 72.7 30 4.3 39.8
09:05 1018 30.06 847 25.01 22.8 73 30 4.4 40
09:10 1017 30.03 847 25.01 22.3 72.2 30 4.3 39.8
09:15 1017 30.03 847 25.01 22.7 72.9 29 4.2 39.5
09:20 1017 30.03 846 24.98 23.1 73.6 29 4.5 40.1
09:25 1017 30.03 846 24.98 23.3 74 28 4.3 39.7
09:30 1017 30.03 846 24.98 23.2 73.7 28 4.1 39.4
09:35 1017 30.03 846 24.98 23.6 74.5 29 4.6 40.3
09:40 1017 30.03 846 24.98 23.8 74.9 27 4.2 39.5
09:45 1017 30.03 846 24.98 24.2 75.5 27 4.5 40.1
09:50 1017 30.03 846 24.98 23 73.3 30 4.7 40.5
09:55 1017 30.03 846 24.98 23.1 73.6 30 4.7 40.4
10:00 1017 30.03 846 24.98 24.1 75.4 27 4.3 39.7
10:05 1017 30.03 846 24.98 23.7 74.7 29 5 41
10:10 1017 30.03 846 24.98 23.8 74.8 27 4.1 39.4
10:15 1017 30.03 846 24.98 24.3 75.7 28 4.7 40.5
10:20 1017 30.03 846 24.98 24 75.2 27 4 39.2
10:25 1017 30.03 846 24.98 23.9 75 27 4.3 39.7
10:30 1017 30.03 846 24.98 24 75.1 27 4 39.2
10:35 1017 30.03 846 24.98 24.5 76.2 26 4.1 39.5
10:40 1017 30.03 846 24.98 24.8 76.6 26 4.2 39.6
10:45 1017 30.03 846 24.98 24.6 76.3 26 4.3 39.8
10:50 1017 30.03 846 24.98 25.4 77.6 25 3.9 39
10:55 1016 30 846 24.98 25.1 77.2 25 4 39.2
11:00 1016 30 846 24.98 24.5 76 27 4.4 39.9
11:05 1016 30 846 24.98 24.6 76.2 25 3.7 38.7
11:10 1016 30 845 24.95 25.5 77.8 25 4.3 39.8
11:15 1016 30 845 24.95 25.1 77.2 25 4 39.2
11:20 1016 30 845 24.95 25.8 78.5 24 4.2 39.5
11:25 1016 30 845 24.95 27.1 80.7 22 3.9 39
11:30 1016 30 845 24.95 27.2 80.9 24 5.1 41.1
11:35 1016 30 845 24.95 27.1 80.8 22 4 39.2
11:40 1016 30 845 24.95 27.6 81.6 23 4.7 40.4
11:45 1016 30 845 24.95 26.8 80.2 24 4.6 40.2
11:50 1016 30 845 24.95 27.4 81.3 22 3.9 39
11:55 1016 30 845 24.95 28.1 82.5 21 4.1 39.4
12:00 1016 30 845 24.95 28.5 83.3 21 4.2 39.6
12:05 1016 30 845 24.95 28.3 82.9 21 4.1 39.4
12:10 1016 30 845 24.95 28.1 82.7 20 3.7 38.6
12:15 1016 30 845 24.95 28.5 83.2 21 4.5 40.1
12:20 1016 30 845 24.95 28.1 82.6 22 4.5 40.2
12:25 1015 29.97 845 24.95 28.5 83.3 20 3.9 38.9
12:30 1015 29.97 845 24.95 29.6 85.2 19 4.2 39.5
12:35 1015 29.97 844 24.92 29.1 84.3 19 3.8 38.8
12:40 1015 29.97 844 24.92 29.5 85.1 19 3.7 38.7
12:45 1015 29.97 844 24.92 28.9 84.1 20 3.9 38.9
12:50 1015 29.97 844 24.92 28.5 83.4 18 1.9 35.5
12:55 1015 29.97 844 24.92 29.5 85.2 18 3.1 37.6
13:00 1015 29.97 844 24.92 29.8 85.7 17 2.3 36.1
13:05 1015 29.97 844 24.92 30.6 87.2 14 0.9 33.5
13:10 1015 29.97 844 24.92 30.7 87.2 15 1.1 34
13:15 1015 29.97 844 24.92 31.1 88 15 1.6 34.8
13:20 1015 29.97 844 24.92 30.7 87.3 15 1.9 35.5
13:25 1015 29.97 844 24.92 31.1 87.9 15 1.7 35
13:30 1014 29.94 844 24.92 31.1 87.9 14 1 33.8
13:35 1014 29.94 844 24.92 31.5 88.7 13 0.5 32.9
13:40 1014 29.94 843 24.89 31.7 89 14 0.9 33.7
13:45 1014 29.94 843 24.89 32.4 90.2 13 0.5 32.9
13:50 1014 29.94 843 24.89 31.6 88.9 13 0.2 32.4
13:55 1014 29.94 843 24.89 32.3 90.1 12 0.2 32.3
14:00 1014 29.94 843 24.89 32.4 90.4 13 1.3 34.3
14:05 1014 29.94 843 24.89 32.8 91 13 0.9 33.7
14:10 1014 29.94 843 24.89 32.4 90.4 13 0.5 33
14:15 1014 29.94 843 24.89 33.1 91.5 12 0.7 33.2
14:20 1014 29.94 843 24.89 33.1 91.6 12 0.5 32.8
14:25 1014 29.94 843 24.89 32.5 90.5 12 0.4 32.6
14:30 1014 29.94 843 24.89 32.7 90.9 12 -0.4 31.3
14:35 1014 29.94 843 24.89 33.1 91.5 12 0.1 32.1
14:40 1014 29.94 843 24.89 32 89.7 8 -6.2 20.8
14:45 1014 29.94 843 24.89 31.4 88.5 9 -4.6 23.7
14:50 1014 29.94 843 24.89 31.2 88.1 9 -5.7 21.8
14:55 1014 29.94 843 24.89 31.7 89.1 9 -4.9 23.1
15:00 1014 29.94 843 24.89 31.8 89.2 9 -4 24.7
15:05 1014 29.94 843 24.89 31.6 88.9 9 -4.1 24.5
15:10 1014 29.94 843 24.89 31.9 89.4 9 -5.1 22.8
15:15 1014 29.94 843 24.89 31.3 88.3 9 -5.3 22.5
15:20 1014 29.94 843 24.89 31.4 88.5 9 -4.2 24.4
15:25 1014 29.94 843 24.89 31.7 89.1 10 -3.6 25.5
15:30 1014 29.94 843 24.89 31.5 88.7 11 -2.8 27
15:35 1014 29.94 843 24.89 31.5 88.7 10 -3.9 25
15:40 1014 29.94 843 24.89 31.8 89.2 10 -3.8 25.1
15:45 1014 29.94 843 24.89 31.8 89.2 10 -3.5 25.8
15:50 1013 29.91 843 24.89 31.7 89.1 10 -3.2 26.2
15:55 1013 29.91 843 24.89 31.5 88.6 10 -4 24.9
16:00 1013 29.91 843 24.89 31.4 88.5 10 -3.8 25.2
16:05 1013 29.91 843 24.89 31.7 89 10 -3.1 26.4
16:10 1013 29.91 843 24.89 32.1 89.8 10 -2.5 27.5
16:15 1013 29.91 842 24.86 31.8 89.2 11 -2.5 27.4
16:20 1013 29.91 842 24.86 31.4 88.5 11 -2.6 27.3
16:25 1013 29.91 842 24.86 31.3 88.4 11 -2.2 28
16:30 1013 29.91 842 24.86 30.9 87.6 11 -2.1 28.2
16:35 1013 29.91 842 24.86 30.9 87.6 12 -2 28.5
16:40 1013 29.91 842 24.86 31 87.8 10 -3.4 25.9
16:45 1013 29.91 842 24.86 31 87.8 11 -2.1 28.3
16:50 1013 29.91 842 24.86 30.8 87.4 11 -2.9 26.8
16:55 1013 29.91 842 24.86 30.7 87.2 12 -1.8 28.8
17:00 1013 29.91 842 24.86 30.6 87 12 -2.3 27.9
17:05 1013 29.91 842 24.86 30.7 87.3 12 -2 28.4
17:10 1013 29.91 842 24.86 31 87.7 11 -2.1 28.2
17:15 1013 29.91 842 24.86 30.8 87.5 11 -3 26.5
17:20 1013 29.91 842 24.86 30.6 87 11 -3.5 25.8
17:25 1013 29.91 842 24.86 30.4 86.7 12 -2.4 27.6
17:30 1013 29.91 842 24.86 30.4 86.8 12 -2.3 27.9
17:35 1013 29.91 842 24.86 30.7 87.2 12 -2.2 28.1
17:40 1013 29.91 842 24.86 30.4 86.6 12 -1.7 28.9
17:45 1013 29.91 842 24.86 30.4 86.6 11 -2.9 26.7
17:50 1013 29.91 842 24.86 30.4 86.8 12 -1.8 28.7
17:55 1013 29.91 842 24.86 30.1 86.3 12 -2.2 28.1
18:00 1013 29.91 842 24.86 30.1 86.2 12 -2.5 27.4
18:05 1013 29.91 842 24.86 29.9 85.8 12 -1.9 28.7
18:10 1013 29.91 842 24.86 29.8 85.7 11 -4.1 24.7
18:15 1013 29.91 842 24.86 29.8 85.6 10 -4.3 24.3
18:20 1013 29.91 842 24.86 29.6 85.3 11 -3.8 25.1
18:25 1013 29.91 842 24.86 29.7 85.5 11 -3.6 25.5
18:30 1013 29.91 842 24.86 29.8 85.6 11 -3.9 25
18:35 1013 29.91 842 24.86 29.4 85 11 -3.4 25.9
18:40 1013 29.91 842 24.86 29.1 84.4 12 -3 26.7
18:45 1013 29.91 842 24.86 28.9 84.1 12 -2.8 27
18:50 1013 29.91 842 24.86 28.8 83.8 12 -3.1 26.5
18:55 1013 29.91 842 24.86 28.6 83.4 11 -4 24.8
19:00 1013 29.91 842 24.86 28.4 83.2 11 -4.2 24.4
19:05 1013 29.91 842 24.86 28.2 82.8 12 -4.1 24.7
19:10 1013 29.91 842 24.86 28.3 83 10 -5.7 21.7
19:15 1013 29.91 842 24.86 28.5 83.2 11 -4.9 23.3
19:20 1013 29.91 842 24.86 28.3 83 10 -5.5 22.1
19:25 1013 29.91 842 24.86 28.2 82.7 11 -4.2 24.4
19:30 1013 29.91 842 24.86 27.8 82 12 -4.4 24.1
19:35 1013 29.91 842 24.86 27.5 81.5 12 -4.3 24.3
19:40 1013 29.91 842 24.86 27.1 80.8 12 -4.1 24.6
19:45 1013 29.91 842 24.86 26.9 80.4 12 -4.6 23.7
19:50 1013 29.91 842 24.86 26.8 80.2 12 -5.2 22.7
19:55 1013 29.91 842 24.86 26.5 79.7 11 -5.5 22.1
20:00 1013 29.91 842 24.86 26.5 79.7 11 -6 21.1
20:05 1013 29.91 842 24.86 26.5 79.7 11 -5.9 21.3
20:10 1013 29.91 842 24.86 26.6 79.8 11 -6.4 20.5
20:15 1013 29.91 842 24.86 26.6 79.9 10 -7.2 19
20:20 1013 29.91 842 24.86 26.4 79.6 11 -6.7 20
20:25 1013 29.91 842 24.86 26.3 79.3 10 -7 19.4
20:30 1013 29.91 842 24.86 26.2 79.1 10 -7.5 18.5
20:35 1013 29.91 842 24.86 26.2 79.1 10 -7.7 18.1
20:40 1013 29.91 842 24.86 26.2 79.2 10 -7.1 19.1
20:45 1013 29.91 843 24.89 26.1 78.9 10 -7.5 18.5
20:50 1013 29.91 843 24.89 25.8 78.4 10 -7.6 18.4
20:55 1013 29.91 843 24.89 25.7 78.2 10 -7.7 18.2
21:00 1013 29.91 843 24.89 25.6 78.2 11 -7 19.4
21:05 1013 29.91 843 24.89 25.5 77.9 11 -7.5 18.5
21:10 1013 29.91 843 24.89 25.7 78.2 11 -7.1 19.3
21:15 1014 29.94 843 24.89 25.6 78.1 11 -7.3 18.8
21:20 1014 29.94 843 24.89 25.8 78.4 11 -7.2 19
21:25 1014 29.94 844 24.92 25.2 77.3 14 -4.1 24.6
21:30 1014 29.94 844 24.92 23.6 74.5 16 -3.8 25.1
21:35 1014 29.94 844 24.92 23.2 73.8 15 -4.3 24.3
21:40 1014 29.94 844 24.92 23.3 73.9 17 -3.3 26.1
21:45 1015 29.97 844 24.92 23.4 74.1 17 -3.1 26.4
21:50 1015 29.97 844 24.92 23.4 74.2 18 -1.7 29
21:55 1015 29.97 844 24.92 23 73.3 22 0 32.1
22:00 1015 29.97 844 24.92 22.5 72.4 25 1.5 34.8
22:05 1015 29.97 844 24.92 22.1 71.7 27 2.4 36.4
22:10 1015 29.97 844 24.92 21.5 70.7 28 2.3 36.1
22:15 1015 29.97 845 24.95 21.2 70.1 28 2 35.6
22:20 1015 29.97 845 24.95 21 69.8 28 1.9 35.5
22:25 1016 30 845 24.95 20.7 69.2 29 2.4 36.3
22:30 1016 30 845 24.95 20.3 68.6 31 2.9 37.2
22:35 1016 30 845 24.95 20.2 68.3 31 2.6 36.7
22:40 1016 30 845 24.95 19.8 67.7 34 3.6 38.5
22:45 1016 30 845 24.95 19.1 66.3 37 4.1 39.4
22:50 1016 30 846 24.98 19 66.1 34 3 37.5
22:55 1016 30 846 24.98 19.3 66.8 33 2.8 37
23:00 1016 30 845 24.95 19.7 67.4 32 2.6 36.7
23:05 1016 30 846 24.98 20.1 68.2 31 2.7 36.8
23:10 1016 30 846 24.98 20.2 68.4 32 3 37.4
23:15 1016 30 846 24.98 20.2 68.3 31 2.5 36.5
23:20 1017 30.03 846 24.98 20.3 68.5 31 2.9 37.2
23:25 1017 30.03 846 24.98 20.1 68.2 32 3.1 37.5
23:30 1017 30.03 846 24.98 19.9 67.8 33 3.1 37.6
23:35 1017 30.03 846 24.98 19.7 67.5 33 3 37.4
23:40 1017 30.03 846 24.98 19.6 67.2 33 3.1 37.6
23:45 1017 30.03 846 24.98 19.5 67.1 33 3 37.4
23:50 1017 30.03 846 24.98 19.5 67.1 33 3 37.4
23:55 1017 30.03 846 24.98 19.5 67.1 33 3 37.3
24:00 1017 30.03 846 24.98 19.6 67.2 33 3 37.3